createdAt,value
2023-02-17T00:00:57.521Z,35.60
2023-02-17T00:03:24.928Z,37.25
2023-02-17T00:05:52.329Z,32.75
2023-02-17T00:08:19.562Z,37.25
2023-02-17T00:10:58.045Z,36.45
2023-02-17T00:13:25.869Z,35.53
2023-02-17T00:15:53.319Z,38.13
2023-02-17T00:18:21.727Z,40.55
2023-02-17T00:20:49.205Z,36.78
2023-02-17T00:23:16.436Z,38.40
2023-02-17T00:25:43.893Z,35.88
2023-02-17T00:28:11.086Z,34.90
2023-02-17T00:30:39.226Z,40.63
2023-02-17T00:33:06.355Z,35.75
2023-02-17T00:35:33.606Z,37.20
2023-02-17T00:38:00.889Z,39.22
2023-02-17T00:40:28.023Z,41.10
2023-02-17T00:42:55.193Z,41.92
2023-02-17T00:45:22.316Z,40.10
2023-02-17T00:47:49.517Z,39.35
2023-02-17T00:50:16.772Z,40.45
2023-02-17T00:52:43.925Z,38.92
2023-02-17T00:55:11.096Z,36.30
2023-02-17T00:57:38.271Z,38.00
2023-02-17T01:00:06.257Z,37.70
2023-02-17T01:02:33.480Z,41.70
2023-02-17T01:05:00.679Z,40.97
2023-02-17T01:07:27.881Z,38.28
2023-02-17T01:09:55.016Z,38.83
2023-02-17T01:12:22.206Z,38.55
2023-02-17T01:14:49.589Z,37.55
2023-02-17T01:17:16.728Z,42.83
2023-02-17T01:19:43.945Z,41.80
2023-02-17T01:22:11.118Z,41.67
2023-02-17T01:24:39.354Z,39.05
2023-02-17T01:27:06.702Z,35.53
2023-02-17T01:29:33.900Z,35.53
2023-02-17T01:32:01.053Z,38.33
2023-02-17T01:34:28.242Z,37.55
2023-02-17T01:36:55.543Z,37.00
2023-02-17T01:39:22.921Z,38.78
2023-02-17T01:41:50.638Z,42.05
2023-02-17T01:44:23.504Z,39.35
2023-02-17T01:46:53.218Z,40.08
2023-02-17T01:49:27.784Z,37.70
2023-02-17T01:52:27.542Z,39.83
2023-02-17T01:54:59.276Z,43.05
2023-02-17T01:57:29.254Z,37.00
2023-02-17T01:59:56.879Z,42.30
2023-02-17T02:02:24.757Z,45.90
2023-02-17T02:04:53.570Z,37.28
2023-02-17T02:07:25.142Z,41.97
2023-02-17T02:09:56.120Z,36.80
2023-02-17T02:12:35.696Z,41.08
2023-02-17T02:15:13.161Z,43.13
2023-02-17T02:18:18.712Z,41.83
2023-02-17T02:21:36.029Z,44.10
2023-02-17T02:24:15.707Z,43.05
2023-02-17T02:26:48.912Z,41.40
2023-02-17T02:29:34.679Z,48.65
2023-02-17T02:32:04.484Z,43.35
2023-02-17T02:34:38.153Z,42.65
2023-02-17T02:37:18.389Z,46.88
2023-02-17T02:39:48.956Z,39.83
2023-02-17T02:42:22.033Z,44.60
2023-02-17T02:44:49.477Z,42.03
2023-02-17T02:47:40.821Z,41.78
2023-02-17T02:50:10.567Z,42.20
2023-02-17T02:52:48.679Z,41.47
2023-02-17T02:55:20.513Z,43.45
2023-02-17T02:58:00.812Z,46.28
2023-02-17T03:00:28.006Z,46.88
2023-02-17T03:03:02.225Z,47.08
2023-02-17T03:05:37.108Z,41.67
2023-02-17T03:08:10.864Z,44.92
2023-02-17T03:10:48.692Z,47.35
2023-02-17T03:13:17.550Z,48.60
2023-02-17T03:15:45.501Z,46.08
2023-02-17T03:18:12.815Z,43.63
2023-02-17T03:21:07.202Z,54.28
2023-02-17T03:23:34.571Z,47.40
2023-02-17T03:26:01.925Z,45.00
2023-02-17T03:28:29.359Z,47.38
2023-02-17T03:30:56.584Z,51.92
2023-02-17T03:33:24.005Z,51.78
2023-02-17T03:35:51.255Z,48.03
2023-02-17T03:38:18.494Z,51.80
2023-02-17T03:40:45.700Z,57.13
2023-02-17T03:43:12.940Z,47.45
2023-02-17T03:45:40.244Z,55.83
2023-02-17T03:48:07.496Z,49.30
2023-02-17T03:50:34.779Z,51.55
2023-02-17T03:53:01.946Z,47.67
2023-02-17T03:55:29.178Z,51.00
2023-02-17T03:57:56.449Z,56.92
2023-02-17T04:00:24.186Z,53.83
2023-02-17T04:02:51.509Z,51.65
2023-02-17T04:05:18.916Z,53.00
2023-02-17T04:07:46.205Z,52.97
2023-02-17T04:10:13.534Z,53.13
2023-02-17T04:12:40.823Z,51.30
2023-02-17T04:15:09.463Z,60.42
2023-02-17T04:17:38.023Z,56.70
2023-02-17T04:20:07.339Z,52.35
2023-02-17T04:22:34.582Z,44.55
2023-02-17T04:25:01.866Z,48.25
2023-02-17T04:27:29.150Z,52.60
2023-02-17T04:29:56.417Z,53.92
2023-02-17T04:32:23.674Z,55.90
2023-02-17T04:34:50.865Z,50.40
2023-02-17T04:37:18.140Z,51.03
2023-02-17T04:39:45.368Z,47.58
2023-02-17T04:42:12.680Z,46.13
2023-02-17T04:44:39.967Z,46.05
2023-02-17T04:47:07.336Z,49.50
2023-02-17T04:49:34.714Z,43.00
2023-02-17T04:52:02.120Z,47.30
2023-02-17T04:54:29.353Z,49.50
2023-02-17T04:56:56.722Z,46.45
2023-02-17T04:59:25.587Z,43.22
2023-02-17T05:01:53.044Z,43.55
2023-02-17T05:04:20.663Z,43.75
2023-02-17T05:06:47.952Z,43.33
2023-02-17T05:09:15.217Z,45.47
2023-02-17T05:11:42.549Z,45.53
2023-02-17T05:14:09.895Z,47.30
2023-02-17T05:16:37.129Z,44.45
2023-02-17T05:19:04.739Z,44.70
2023-02-17T05:21:32.755Z,43.40
2023-02-17T05:24:00.133Z,48.05
2023-02-17T05:26:27.491Z,46.95
2023-02-17T05:28:55.062Z,43.90
2023-02-17T05:31:22.397Z,48.67
2023-02-17T05:33:50.080Z,44.15
2023-02-17T05:36:17.410Z,48.42
2023-02-17T05:38:49.071Z,43.10
2023-02-17T05:41:16.957Z,45.38
2023-02-17T05:43:44.269Z,43.13
2023-02-17T05:46:11.924Z,41.63
2023-02-17T05:48:39.239Z,45.25
2023-02-17T05:51:06.817Z,46.90
2023-02-17T05:53:34.093Z,53.45
2023-02-17T05:56:01.823Z,46.05
2023-02-17T05:58:37.063Z,50.63
2023-02-17T06:01:09.351Z,48.88
2023-02-17T06:03:40.092Z,46.85
2023-02-17T06:06:08.137Z,47.78
2023-02-17T06:08:36.671Z,51.08
2023-02-17T06:11:04.296Z,45.38
2023-02-17T06:13:31.660Z,48.35
2023-02-17T06:15:59.263Z,46.72
2023-02-17T06:18:26.733Z,42.40
2023-02-17T06:20:57.579Z,50.42
2023-02-17T06:23:25.439Z,45.10
2023-02-17T06:25:53.294Z,44.92
2023-02-17T06:28:20.638Z,47.42
2023-02-17T06:30:47.921Z,38.80
2023-02-17T06:33:15.885Z,43.28
2023-02-17T06:35:44.632Z,42.45
2023-02-17T06:38:11.855Z,47.58
2023-02-17T06:40:39.143Z,44.22
2023-02-17T06:43:06.673Z,44.22
2023-02-17T06:45:34.088Z,45.22
2023-02-17T06:48:01.511Z,39.53
2023-02-17T06:50:28.801Z,38.45
2023-02-17T06:52:56.485Z,38.65
2023-02-17T06:55:23.968Z,39.58
2023-02-17T06:57:51.293Z,40.35
2023-02-17T07:00:19.271Z,36.88
2023-02-17T07:02:47.183Z,36.60
2023-02-17T07:05:14.731Z,41.88
2023-02-17T07:07:42.084Z,36.90
2023-02-17T07:10:09.753Z,38.25
2023-02-17T07:12:37.160Z,37.45
2023-02-17T07:15:04.841Z,39.42
2023-02-17T07:17:32.194Z,33.70
2023-02-17T07:19:59.580Z,36.35
2023-02-17T07:22:27.079Z,33.08
2023-02-17T07:24:54.444Z,33.53
2023-02-17T07:27:22.002Z,32.78
2023-02-17T07:29:49.284Z,30.77
2023-02-17T07:32:16.551Z,34.00
2023-02-17T07:34:44.277Z,32.15
2023-02-17T07:37:11.523Z,30.77
2023-02-17T07:39:39.012Z,31.20
2023-02-17T07:42:06.277Z,28.35
2023-02-17T07:44:33.661Z,30.30
2023-02-17T07:47:00.873Z,28.95
2023-02-17T07:49:28.312Z,29.27
2023-02-17T07:51:58.068Z,30.92
2023-02-17T07:54:25.306Z,30.42
2023-02-17T07:56:52.548Z,27.98
2023-02-17T07:59:20.036Z,25.25
2023-02-17T08:01:47.516Z,28.73
2023-02-17T08:04:14.813Z,28.55
2023-02-17T08:06:42.027Z,28.20
2023-02-17T08:09:30.974Z,26.35
2023-02-17T08:12:16.712Z,29.67
2023-02-17T08:14:44.029Z,26.02
2023-02-17T08:17:11.369Z,27.08
2023-02-17T08:19:47.940Z,28.90
2023-02-17T08:22:18.247Z,28.50
2023-02-17T08:24:46.009Z,27.63
2023-02-17T08:27:14.788Z,25.75
2023-02-17T08:29:42.200Z,27.02
2023-02-17T08:32:09.609Z,25.38
2023-02-17T08:34:37.329Z,26.98
2023-02-17T08:37:06.221Z,25.77
2023-02-17T08:39:35.027Z,26.08
2023-02-17T08:42:03.301Z,25.23
2023-02-17T08:44:30.843Z,22.90
2023-02-17T08:46:58.131Z,23.50
2023-02-17T08:49:28.474Z,22.65
2023-02-17T08:51:55.810Z,24.45
2023-02-17T08:54:23.078Z,24.00
2023-02-17T08:56:50.368Z,26.27
2023-02-17T08:59:17.573Z,24.45
2023-02-17T09:01:44.925Z,24.95
2023-02-17T09:04:13.654Z,27.75
2023-02-17T09:06:43.984Z,25.25
2023-02-17T09:09:13.247Z,23.90
2023-02-17T09:11:40.749Z,21.90
2023-02-17T09:14:08.697Z,22.40
2023-02-17T09:16:36.199Z,22.40
2023-02-17T09:19:03.863Z,24.52
2023-02-17T09:21:31.241Z,22.92
2023-02-17T09:23:58.603Z,28.05
2023-02-17T09:26:25.932Z,21.90
2023-02-17T09:28:53.168Z,26.42
2023-02-17T09:31:22.938Z,25.75
2023-02-17T09:33:51.243Z,24.02
2023-02-17T09:36:21.439Z,24.00
2023-02-17T09:38:49.442Z,26.88
2023-02-17T09:41:22.205Z,23.70
2023-02-17T09:43:50.712Z,27.85
2023-02-17T09:46:28.839Z,21.42
2023-02-17T09:48:59.644Z,25.92
2023-02-17T09:51:36.820Z,23.48
2023-02-17T09:54:17.470Z,24.88
2023-02-17T09:56:48.406Z,27.38
2023-02-17T09:59:20.788Z,22.88
2023-02-17T10:01:49.109Z,28.40
2023-02-17T10:04:22.829Z,27.98
2023-02-17T10:06:55.054Z,22.63
2023-02-17T10:09:23.734Z,24.52
2023-02-17T10:11:52.913Z,22.52
2023-02-17T10:14:40.789Z,27.80
2023-02-17T10:17:14.497Z,25.75
2023-02-17T10:19:49.386Z,25.45
2023-02-17T10:22:21.043Z,24.10
2023-02-17T10:24:48.517Z,24.95
2023-02-17T10:27:28.526Z,27.02
2023-02-17T10:30:21.462Z,22.88
2023-02-17T10:33:02.824Z,27.17
2023-02-17T10:35:52.498Z,27.20
2023-02-17T10:38:41.633Z,24.92
2023-02-17T10:41:11.136Z,28.35
2023-02-17T10:43:38.421Z,29.48
2023-02-17T10:46:07.715Z,27.13
2023-02-17T10:48:39.021Z,27.08
2023-02-17T10:51:06.931Z,26.40
2023-02-17T10:53:39.327Z,27.40
2023-02-17T10:56:14.403Z,29.83
2023-02-17T10:58:59.923Z,26.15
2023-02-17T11:01:28.099Z,27.90
2023-02-17T11:04:06.949Z,27.60
2023-02-17T11:06:41.857Z,27.50
2023-02-17T11:09:28.480Z,27.55
2023-02-17T11:12:13.894Z,25.08
2023-02-17T11:14:46.458Z,28.48
2023-02-17T11:17:39.879Z,24.58
2023-02-17T11:20:15.275Z,28.25
2023-02-17T11:28:30.411Z,25.25
2023-02-17T11:31:00.286Z,28.35
2023-02-17T11:33:52.446Z,27.60
2023-02-17T11:36:37.583Z,26.35
2023-02-17T11:39:18.461Z,23.58
2023-02-17T11:41:45.665Z,24.80
2023-02-17T11:44:22.989Z,22.60
2023-02-17T11:47:09.823Z,25.15
2023-02-17T11:49:55.450Z,24.60
2023-02-17T11:52:44.371Z,24.20
2023-02-17T11:55:22.350Z,19.15
2023-02-17T11:58:28.234Z,21.50
2023-02-17T12:01:09.625Z,23.77
2023-02-17T12:03:52.163Z,26.45
2023-02-17T12:06:42.878Z,18.58
2023-02-17T12:09:48.739Z,22.02
2023-02-17T12:12:19.054Z,21.35
2023-02-17T12:14:46.216Z,16.35
2023-02-17T12:17:34.113Z,19.58
2023-02-17T12:20:28.632Z,16.33
2023-02-17T12:23:15.180Z,21.20
2023-02-17T12:25:53.426Z,16.42
2023-02-17T12:28:39.330Z,20.83
2023-02-17T12:31:27.722Z,14.90
2023-02-17T12:34:05.678Z,14.73
2023-02-17T12:36:38.435Z,14.98
2023-02-17T12:39:17.536Z,14.48
2023-02-17T12:42:15.880Z,12.82
2023-02-17T12:44:49.982Z,17.08
2023-02-17T12:47:46.603Z,17.17
2023-02-17T12:50:27.594Z,13.95
2023-02-17T12:52:57.683Z,13.88
2023-02-17T12:55:35.859Z,15.98
2023-02-17T12:58:13.411Z,12.15
2023-02-17T13:00:49.719Z,12.30
2023-02-17T13:03:17.794Z,11.65
2023-02-17T13:06:00.778Z,11.88
2023-02-17T13:08:42.026Z,10.40
2023-02-17T13:11:25.832Z,11.43
2023-02-17T13:13:53.041Z,12.93
2023-02-17T13:16:20.447Z,11.75
2023-02-17T13:18:50.610Z,10.82
2023-02-17T13:21:22.656Z,10.00
2023-02-17T13:24:15.091Z,8.90
2023-02-17T13:26:44.211Z,6.97
2023-02-17T13:29:11.380Z,11.32
2023-02-17T13:31:47.333Z,11.60
2023-02-17T13:34:25.519Z,8.13
2023-02-17T13:36:52.828Z,8.15
2023-02-17T13:39:25.933Z,8.18
2023-02-17T13:41:55.905Z,10.20
2023-02-17T13:44:27.932Z,10.68
2023-02-17T13:47:11.285Z,11.07
2023-02-17T13:49:38.697Z,7.57
2023-02-17T13:52:10.464Z,8.13
2023-02-17T13:54:37.681Z,10.68
2023-02-17T13:57:04.862Z,8.00
2023-02-17T13:59:37.033Z,7.00
2023-02-17T14:02:19.414Z,6.78
2023-02-17T14:04:55.130Z,8.52
2023-02-17T14:07:22.631Z,7.55
2023-02-17T14:09:54.448Z,5.78
2023-02-17T14:12:24.256Z,8.30
2023-02-17T14:14:51.576Z,5.85
2023-02-17T14:17:32.968Z,6.32
2023-02-17T14:20:00.834Z,7.75
2023-02-17T14:22:34.135Z,7.20
2023-02-17T14:25:11.616Z,10.55
2023-02-17T14:27:47.949Z,7.22
2023-02-17T14:30:28.783Z,7.25
2023-02-17T14:33:02.291Z,8.85
2023-02-17T14:35:30.106Z,7.13
2023-02-17T14:38:27.847Z,8.38
2023-02-17T14:41:02.712Z,9.52
2023-02-17T14:43:30.498Z,7.10
2023-02-17T14:45:58.040Z,6.00
2023-02-17T14:48:27.687Z,9.98
2023-02-17T14:50:57.332Z,9.45
2023-02-17T14:53:28.417Z,10.35
2023-02-17T14:56:26.142Z,9.68
2023-02-17T14:58:53.918Z,9.57
2023-02-17T15:01:23.243Z,10.63
2023-02-17T15:03:50.677Z,10.65
2023-02-17T15:06:23.047Z,11.18
2023-02-17T15:08:53.522Z,9.57
2023-02-17T15:11:33.708Z,10.90
2023-02-17T15:14:02.913Z,11.98
2023-02-17T15:16:30.673Z,13.73
2023-02-17T15:19:01.130Z,11.73
2023-02-17T15:21:31.665Z,16.00
2023-02-17T15:24:00.195Z,12.32
2023-02-17T15:26:30.451Z,12.15
2023-02-17T15:29:02.836Z,11.27
2023-02-17T15:31:34.236Z,13.52
2023-02-17T15:34:06.095Z,16.98
2023-02-17T15:36:33.289Z,14.13
2023-02-17T15:39:00.578Z,15.75
2023-02-17T15:41:29.900Z,12.15
2023-02-17T15:43:58.748Z,13.27
2023-02-17T15:46:31.612Z,11.98
2023-02-17T15:48:59.122Z,13.07
2023-02-17T15:51:26.507Z,11.95
2023-02-17T15:53:53.763Z,13.15
2023-02-17T15:56:30.542Z,14.15
2023-02-17T15:58:59.320Z,11.95
2023-02-17T16:01:31.744Z,13.60
2023-02-17T16:03:59.482Z,12.98
2023-02-17T16:06:27.466Z,12.20
2023-02-17T16:08:55.325Z,12.30
2023-02-17T16:11:22.971Z,13.68
2023-02-17T16:13:50.609Z,16.60
2023-02-17T16:16:24.803Z,15.50
2023-02-17T16:18:52.236Z,13.02
2023-02-17T16:21:19.519Z,16.77
2023-02-17T16:23:46.770Z,14.65
2023-02-17T16:26:25.933Z,15.45
2023-02-17T16:28:53.402Z,15.05
2023-02-17T16:31:20.715Z,12.13
2023-02-17T16:33:48.206Z,12.77
2023-02-17T16:36:17.715Z,11.77
2023-02-17T16:38:50.543Z,13.90
2023-02-17T16:41:20.260Z,12.55
2023-02-17T16:43:47.790Z,12.30
2023-02-17T16:46:36.364Z,11.95
2023-02-17T16:49:11.668Z,9.00
2023-02-17T16:51:43.287Z,9.82
2023-02-17T16:54:16.295Z,8.10
2023-02-17T16:56:48.865Z,9.43
2023-02-17T17:01:50.931Z,7.65
2023-02-17T17:04:18.319Z,8.13
2023-02-17T17:06:51.782Z,7.18
2023-02-17T17:09:24.351Z,8.05
2023-02-17T17:11:51.732Z,7.47
2023-02-17T17:14:21.528Z,6.80
2023-02-17T17:16:55.797Z,7.22
2023-02-17T17:19:23.582Z,7.32
2023-02-17T17:21:55.851Z,6.88
2023-02-17T17:24:26.099Z,5.50
2023-02-17T17:26:55.943Z,5.65
2023-02-17T17:29:23.144Z,7.57
2023-02-17T17:31:51.106Z,6.47
2023-02-17T17:34:18.387Z,6.18
2023-02-17T17:36:51.713Z,7.65
2023-02-17T17:39:21.264Z,12.95
2023-02-17T17:41:49.516Z,6.32
2023-02-17T17:44:16.819Z,6.82
2023-02-17T17:46:44.419Z,8.25
2023-02-17T17:49:14.329Z,5.93
2023-02-17T17:51:41.884Z,6.15
2023-02-17T17:54:09.721Z,5.68
2023-02-17T17:56:42.488Z,5.07
2023-02-17T17:59:11.547Z,5.10
2023-02-17T18:01:39.033Z,4.57
2023-02-17T18:04:08.020Z,7.68
2023-02-17T18:06:41.825Z,8.40
2023-02-17T18:09:25.730Z,7.93
2023-02-17T18:12:00.390Z,7.35
2023-02-17T18:14:27.636Z,7.93
2023-02-17T18:16:54.868Z,8.02
2023-02-17T18:19:22.786Z,7.68
2023-02-17T18:21:49.998Z,5.82
2023-02-17T18:24:17.358Z,11.48
2023-02-17T18:26:44.649Z,3.95
2023-02-17T18:29:11.901Z,5.13
2023-02-17T18:31:39.172Z,9.88
2023-02-17T18:34:06.530Z,12.13
2023-02-17T18:36:33.768Z,6.97
2023-02-17T18:39:01.027Z,9.23
2023-02-17T18:41:30.809Z,8.55
2023-02-17T18:43:59.439Z,9.95
2023-02-17T18:46:30.536Z,8.23
2023-02-17T18:48:57.799Z,6.15
2023-02-17T18:51:27.595Z,8.32
2023-02-17T18:53:56.597Z,7.07
2023-02-17T18:56:27.078Z,11.57
2023-02-17T18:58:57.607Z,7.70
2023-02-17T19:01:33.828Z,8.52
2023-02-17T19:04:01.520Z,5.75
2023-02-17T19:06:33.632Z,6.90
2023-02-17T19:09:04.168Z,8.90
2023-02-17T19:11:32.292Z,8.15
2023-02-17T19:14:04.996Z,4.63
2023-02-17T19:16:35.638Z,5.60
2023-02-17T19:19:03.440Z,8.23
2023-02-17T19:21:30.782Z,9.40
2023-02-17T19:23:58.011Z,8.63
2023-02-17T19:26:28.610Z,6.28
2023-02-17T19:28:55.871Z,8.02
2023-02-17T19:31:23.349Z,4.75
2023-02-17T19:33:50.711Z,12.07
2023-02-17T19:36:20.347Z,9.43
2023-02-17T19:38:48.741Z,9.40
2023-02-17T19:41:17.605Z,9.60
2023-02-17T19:43:45.663Z,11.05
2023-02-17T19:46:18.373Z,7.32
2023-02-17T19:48:46.188Z,11.13
2023-02-17T19:51:16.567Z,9.52
2023-02-17T19:53:44.258Z,8.70
2023-02-17T19:56:14.516Z,13.25
2023-02-17T19:58:43.369Z,11.90
2023-02-17T20:01:16.844Z,9.63
2023-02-17T20:03:44.887Z,14.90
2023-02-17T20:06:21.809Z,15.95
2023-02-17T20:08:59.304Z,14.25
2023-02-17T20:11:30.262Z,10.90
2023-02-17T20:14:04.871Z,5.65
2023-02-17T20:16:33.032Z,9.20
2023-02-17T20:19:01.515Z,12.57
2023-02-17T20:21:31.394Z,11.77
2023-02-17T20:23:59.148Z,16.48
2023-02-17T20:26:29.519Z,26.42
2023-02-17T20:28:58.052Z,9.70
2023-02-17T20:31:28.471Z,10.93
2023-02-17T20:33:55.946Z,11.32
2023-02-17T20:36:23.724Z,11.80
2023-02-17T20:38:50.990Z,11.27
2023-02-17T20:41:31.982Z,13.90
2023-02-17T20:44:02.908Z,13.77
2023-02-17T20:46:31.088Z,10.68
2023-02-17T20:48:58.880Z,11.55
2023-02-17T20:51:26.563Z,12.40
2023-02-17T20:54:03.649Z,15.95
2023-02-17T20:56:39.852Z,18.17
2023-02-17T20:59:10.356Z,12.88
2023-02-17T21:01:37.932Z,15.70
2023-02-17T21:04:09.109Z,20.15
2023-02-17T21:06:41.449Z,10.20
2023-02-17T21:09:17.357Z,15.15
2023-02-17T21:11:45.536Z,13.93
2023-02-17T21:14:13.288Z,14.40
2023-02-17T21:16:40.958Z,9.85
2023-02-17T21:19:09.292Z,9.95
2023-02-17T21:21:36.869Z,11.40
2023-02-17T21:27:08.002Z,13.55
2023-02-17T21:29:36.644Z,13.73
2023-02-17T21:32:06.991Z,14.07
2023-02-17T21:34:38.412Z,14.32
2023-02-17T21:37:08.326Z,16.33
2023-02-17T21:39:36.375Z,17.05
2023-02-17T21:42:04.203Z,14.05
2023-02-17T21:44:50.121Z,12.40
2023-02-17T21:47:18.095Z,13.48
2023-02-17T21:49:45.506Z,8.57
2023-02-17T21:52:13.483Z,9.80
2023-02-17T21:54:41.022Z,12.70
2023-02-17T21:57:08.650Z,20.58
2023-02-17T21:59:35.892Z,19.38
2023-02-17T22:02:03.292Z,15.75
2023-02-17T22:04:33.579Z,14.77
2023-02-17T22:07:00.966Z,16.85
2023-02-17T22:09:28.252Z,16.50
2023-02-17T22:11:55.687Z,17.38
2023-02-17T22:14:23.622Z,13.93
2023-02-17T22:16:51.600Z,15.95
2023-02-17T22:19:22.813Z,14.18
2023-02-17T22:21:51.084Z,15.00
2023-02-17T22:24:20.725Z,13.65
2023-02-17T22:26:49.094Z,16.80
2023-02-17T22:29:16.747Z,13.68
2023-02-17T22:31:47.481Z,15.02
2023-02-17T22:34:15.498Z,18.58
2023-02-17T22:36:42.712Z,18.33
2023-02-17T22:39:13.739Z,11.45
2023-02-17T22:41:40.926Z,14.65
2023-02-17T22:44:10.750Z,13.30
2023-02-17T22:46:38.113Z,17.15
2023-02-17T22:49:08.308Z,16.50
2023-02-17T22:51:43.399Z,22.38
2023-02-17T22:54:13.633Z,13.32
2023-02-17T22:56:40.882Z,13.63
2023-02-17T22:59:08.059Z,18.02
2023-02-17T23:01:38.111Z,20.83
2023-02-17T23:04:06.874Z,13.10
2023-02-17T23:06:36.384Z,13.48
2023-02-17T23:09:04.854Z,16.13
2023-02-17T23:11:50.259Z,20.08
2023-02-17T23:14:28.115Z,16.35
2023-02-17T23:16:59.992Z,11.82
2023-02-17T23:19:28.231Z,13.63
2023-02-17T23:21:58.011Z,19.73
2023-02-17T23:24:26.672Z,15.57
2023-02-17T23:26:55.684Z,25.17
2023-02-17T23:29:23.478Z,15.68
2023-02-17T23:31:50.836Z,15.80
2023-02-17T23:34:18.275Z,20.25
2023-02-17T23:36:46.387Z,15.10
2023-02-17T23:39:14.698Z,21.63
2023-02-17T23:41:41.940Z,20.92
2023-02-17T23:44:10.883Z,19.02
2023-02-17T23:46:38.355Z,20.67
2023-02-17T23:49:06.102Z,26.98
2023-02-17T23:51:33.804Z,28.40
2023-02-17T23:54:01.397Z,18.17
2023-02-17T23:56:32.101Z,16.35
2023-02-17T23:58:59.875Z,18.70
